sensor_id;sensor_type;location;lat;lon;timestamp;P1;durP1;ratioP1;P2;durP2;ratioP2
51664;SDS011;37751;52.408;12.536;2022-09-02T00:01:34;2.50;;;1.90;;
51664;SDS011;37751;52.408;12.536;2022-09-02T00:04:07;3.20;;;1.70;;
51664;SDS011;37751;52.408;12.536;2022-09-02T00:06:39;1.77;;;1.40;;
51664;SDS011;37751;52.408;12.536;2022-09-02T00:09:08;3.88;;;1.88;;
51664;SDS011;37751;52.408;12.536;2022-09-02T00:11:38;5.10;;;1.67;;
51664;SDS011;37751;52.408;12.536;2022-09-02T00:14:10;3.45;;;1.70;;
51664;SDS011;37751;52.408;12.536;2022-09-02T00:16:42;3.47;;;1.80;;
51664;SDS011;37751;52.408;12.536;2022-09-02T00:19:19;2.22;;;1.83;;
51664;SDS011;37751;52.408;12.536;2022-09-02T00:21:50;2.70;;;1.63;;
51664;SDS011;37751;52.408;12.536;2022-09-02T00:24:19;3.30;;;1.60;;
51664;SDS011;37751;52.408;12.536;2022-09-02T00:26:47;3.65;;;1.50;;
51664;SDS011;37751;52.408;12.536;2022-09-02T00:29:14;2.10;;;1.60;;
51664;SDS011;37751;52.408;12.536;2022-09-02T00:31:42;2.75;;;1.30;;
51664;SDS011;37751;52.408;12.536;2022-09-02T00:34:11;2.28;;;1.35;;
51664;SDS011;37751;52.408;12.536;2022-09-02T00:36:38;2.05;;;1.40;;
51664;SDS011;37751;52.408;12.536;2022-09-02T00:39:05;2.65;;;1.63;;
51664;SDS011;37751;52.408;12.536;2022-09-02T00:41:34;1.70;;;1.50;;
51664;SDS011;37751;52.408;12.536;2022-09-02T00:44:05;2.67;;;1.67;;
51664;SDS011;37751;52.408;12.536;2022-09-02T00:46:37;5.53;;;1.38;;
51664;SDS011;37751;52.408;12.536;2022-09-02T00:54:36;2.20;;;1.52;;
51664;SDS011;37751;52.408;12.536;2022-09-02T00:57:20;2.05;;;1.23;;
51664;SDS011;37751;52.408;12.536;2022-09-02T01:02:30;5.30;;;1.98;;
51664;SDS011;37751;52.408;12.536;2022-09-02T01:04:58;4.07;;;1.90;;
51664;SDS011;37751;52.408;12.536;2022-09-02T01:07:29;4.32;;;1.80;;
51664;SDS011;37751;52.408;12.536;2022-09-02T01:10:04;7.60;;;1.42;;
51664;SDS011;37751;52.408;12.536;2022-09-02T01:12:34;5.90;;;1.70;;
51664;SDS011;37751;52.408;12.536;2022-09-02T01:15:02;3.25;;;1.73;;
51664;SDS011;37751;52.408;12.536;2022-09-02T01:17:31;5.50;;;2.00;;
51664;SDS011;37751;52.408;12.536;2022-09-02T01:20:08;4.13;;;1.98;;
51664;SDS011;37751;52.408;12.536;2022-09-02T01:22:38;2.60;;;1.75;;
51664;SDS011;37751;52.408;12.536;2022-09-02T01:25:08;2.72;;;1.90;;
51664;SDS011;37751;52.408;12.536;2022-09-02T01:27:39;2.75;;;1.88;;
51664;SDS011;37751;52.408;12.536;2022-09-02T01:30:08;5.88;;;2.30;;
51664;SDS011;37751;52.408;12.536;2022-09-02T01:32:39;5.63;;;1.95;;
51664;SDS011;37751;52.408;12.536;2022-09-02T01:35:06;3.67;;;1.88;;
51664;SDS011;37751;52.408;12.536;2022-09-02T01:37:33;5.30;;;1.73;;
51664;SDS011;37751;52.408;12.536;2022-09-02T01:40:00;3.65;;;1.70;;
51664;SDS011;37751;52.408;12.536;2022-09-02T01:42:28;2.40;;;1.50;;
51664;SDS011;37751;52.408;12.536;2022-09-02T01:44:54;4.43;;;1.95;;
51664;SDS011;37751;52.408;12.536;2022-09-02T01:47:22;2.58;;;2.00;;
51664;SDS011;37751;52.408;12.536;2022-09-02T01:49:52;2.40;;;1.73;;
51664;SDS011;37751;52.408;12.536;2022-09-02T01:52:20;3.75;;;1.98;;
51664;SDS011;37751;52.408;12.536;2022-09-02T01:54:49;2.03;;;1.83;;
51664;SDS011;37751;52.408;12.536;2022-09-02T01:57:16;4.18;;;1.98;;
51664;SDS011;37751;52.408;12.536;2022-09-02T01:59:43;4.22;;;1.50;;
51664;SDS011;37751;52.408;12.536;2022-09-02T02:02:14;6.97;;;2.08;;
51664;SDS011;37751;52.408;12.536;2022-09-02T02:04:42;3.55;;;1.90;;
51664;SDS011;37751;52.408;12.536;2022-09-02T02:07:09;5.20;;;1.80;;
51664;SDS011;37751;52.408;12.536;2022-09-02T02:09:36;5.63;;;2.40;;
51664;SDS011;37751;52.408;12.536;2022-09-02T02:12:03;4.55;;;2.22;;
51664;SDS011;37751;52.408;12.536;2022-09-02T02:14:31;2.67;;;1.90;;
51664;SDS011;37751;52.408;12.536;2022-09-02T02:16:58;6.18;;;2.13;;
51664;SDS011;37751;52.408;12.536;2022-09-02T02:19:25;3.80;;;1.90;;
51664;SDS011;37751;52.408;12.536;2022-09-02T02:21:52;2.92;;;1.95;;
51664;SDS011;37751;52.408;12.536;2022-09-02T02:24:20;4.18;;;1.63;;
51664;SDS011;37751;52.408;12.536;2022-09-02T02:26:47;3.97;;;1.67;;
51664;SDS011;37751;52.408;12.536;2022-09-02T02:29:14;5.60;;;2.05;;
51664;SDS011;37751;52.408;12.536;2022-09-02T02:31:41;6.10;;;2.03;;
51664;SDS011;37751;52.408;12.536;2022-09-02T02:34:09;5.28;;;2.63;;
51664;SDS011;37751;52.408;12.536;2022-09-02T02:36:36;6.45;;;2.40;;
51664;SDS011;37751;52.408;12.536;2022-09-02T02:39:05;2.65;;;2.05;;
51664;SDS011;37751;52.408;12.536;2022-09-02T02:41:35;5.22;;;2.22;;
51664;SDS011;37751;52.408;12.536;2022-09-02T02:44:04;4.10;;;2.38;;
51664;SDS011;37751;52.408;12.536;2022-09-02T02:46:31;3.38;;;1.98;;
51664;SDS011;37751;52.408;12.536;2022-09-02T02:49:01;3.65;;;2.03;;
51664;SDS011;37751;52.408;12.536;2022-09-02T02:51:30;3.08;;;1.58;;
51664;SDS011;37751;52.408;12.536;2022-09-02T02:53:59;2.60;;;2.00;;
51664;SDS011;37751;52.408;12.536;2022-09-02T02:56:27;2.67;;;2.17;;
51664;SDS011;37751;52.408;12.536;2022-09-02T02:58:55;4.57;;;2.58;;
51664;SDS011;37751;52.408;12.536;2022-09-02T03:01:22;5.07;;;2.63;;
51664;SDS011;37751;52.408;12.536;2022-09-02T03:03:49;3.60;;;1.83;;
51664;SDS011;37751;52.408;12.536;2022-09-02T03:06:18;3.80;;;2.05;;
51664;SDS011;37751;52.408;12.536;2022-09-02T03:08:51;6.63;;;2.20;;
51664;SDS011;37751;52.408;12.536;2022-09-02T03:11:18;3.55;;;2.03;;
51664;SDS011;37751;52.408;12.536;2022-09-02T03:13:48;3.72;;;2.22;;
51664;SDS011;37751;52.408;12.536;2022-09-02T03:16:15;10.63;;;2.50;;
51664;SDS011;37751;52.408;12.536;2022-09-02T03:18:45;6.65;;;2.80;;
51664;SDS011;37751;52.408;12.536;2022-09-02T03:21:13;3.17;;;2.17;;
51664;SDS011;37751;52.408;12.536;2022-09-02T03:23:41;5.10;;;2.17;;
51664;SDS011;37751;52.408;12.536;2022-09-02T03:26:10;6.47;;;2.35;;
51664;SDS011;37751;52.408;12.536;2022-09-02T03:28:44;4.80;;;2.40;;
51664;SDS011;37751;52.408;12.536;2022-09-02T03:31:14;3.20;;;2.28;;
51664;SDS011;37751;52.408;12.536;2022-09-02T03:33:44;6.82;;;2.38;;
51664;SDS011;37751;52.408;12.536;2022-09-02T03:36:21;3.85;;;2.45;;
51664;SDS011;37751;52.408;12.536;2022-09-02T03:38:52;3.90;;;2.40;;
51664;SDS011;37751;52.408;12.536;2022-09-02T03:41:20;3.70;;;2.17;;
51664;SDS011;37751;52.408;12.536;2022-09-02T03:43:47;3.00;;;1.90;;
51664;SDS011;37751;52.408;12.536;2022-09-02T03:46:15;3.88;;;2.70;;
51664;SDS011;37751;52.408;12.536;2022-09-02T03:48:43;3.60;;;2.85;;
51664;SDS011;37751;52.408;12.536;2022-09-02T03:51:11;3.65;;;2.22;;
51664;SDS011;37751;52.408;12.536;2022-09-02T03:53:38;5.72;;;3.08;;
51664;SDS011;37751;52.408;12.536;2022-09-02T03:56:05;3.65;;;2.50;;
51664;SDS011;37751;52.408;12.536;2022-09-02T03:58:38;4.13;;;2.13;;
51664;SDS011;37751;52.408;12.536;2022-09-02T04:01:07;3.67;;;2.50;;
51664;SDS011;37751;52.408;12.536;2022-09-02T04:03:38;6.45;;;2.90;;
51664;SDS011;37751;52.408;12.536;2022-09-02T04:06:07;6.70;;;2.30;;
51664;SDS011;37751;52.408;12.536;2022-09-02T04:08:38;3.28;;;2.50;;
51664;SDS011;37751;52.408;12.536;2022-09-02T04:11:08;6.28;;;2.30;;
51664;SDS011;37751;52.408;12.536;2022-09-02T04:13:38;5.65;;;2.53;;
51664;SDS011;37751;52.408;12.536;2022-09-02T04:16:08;6.70;;;2.97;;
51664;SDS011;37751;52.408;12.536;2022-09-02T04:21:45;6.05;;;3.13;;
51664;SDS011;37751;52.408;12.536;2022-09-02T04:24:31;4.57;;;3.10;;
51664;SDS011;37751;52.408;12.536;2022-09-02T04:26:58;4.47;;;3.00;;
51664;SDS011;37751;52.408;12.536;2022-09-02T04:29:29;4.45;;;2.65;;
51664;SDS011;37751;52.408;12.536;2022-09-02T04:31:57;6.38;;;2.58;;
51664;SDS011;37751;52.408;12.536;2022-09-02T04:34:23;9.00;;;3.10;;
51664;SDS011;37751;52.408;12.536;2022-09-02T04:36:50;3.67;;;2.30;;
51664;SDS011;37751;52.408;12.536;2022-09-02T04:39:18;4.50;;;2.85;;
51664;SDS011;37751;52.408;12.536;2022-09-02T04:41:45;5.30;;;3.15;;
51664;SDS011;37751;52.408;12.536;2022-09-02T04:44:11;5.70;;;2.60;;
51664;SDS011;37751;52.408;12.536;2022-09-02T04:46:38;7.40;;;2.35;;
51664;SDS011;37751;52.408;12.536;2022-09-02T04:49:05;4.38;;;2.65;;
51664;SDS011;37751;52.408;12.536;2022-09-02T04:51:32;6.93;;;2.70;;
51664;SDS011;37751;52.408;12.536;2022-09-02T04:53:59;4.15;;;2.78;;
51664;SDS011;37751;52.408;12.536;2022-09-02T04:56:27;7.47;;;2.38;;
51664;SDS011;37751;52.408;12.536;2022-09-02T04:58:59;20.88;;;5.60;;
51664;SDS011;37751;52.408;12.536;2022-09-02T05:01:27;8.43;;;2.42;;
51664;SDS011;37751;52.408;12.536;2022-09-02T05:04:03;4.07;;;2.28;;
51664;SDS011;37751;52.408;12.536;2022-09-02T05:06:35;7.80;;;2.63;;
51664;SDS011;37751;52.408;12.536;2022-09-02T05:09:09;6.22;;;3.13;;
51664;SDS011;37751;52.408;12.536;2022-09-02T05:11:36;4.60;;;3.45;;
51664;SDS011;37751;52.408;12.536;2022-09-02T05:14:04;9.40;;;2.90;;
51664;SDS011;37751;52.408;12.536;2022-09-02T05:16:36;8.18;;;2.90;;
51664;SDS011;37751;52.408;12.536;2022-09-02T05:19:05;4.95;;;2.50;;
51664;SDS011;37751;52.408;12.536;2022-09-02T05:21:38;5.72;;;2.63;;
51664;SDS011;37751;52.408;12.536;2022-09-02T05:24:08;2.63;;;1.98;;
51664;SDS011;37751;52.408;12.536;2022-09-02T05:26:35;6.28;;;2.50;;
51664;SDS011;37751;52.408;12.536;2022-09-02T05:29:03;4.22;;;2.60;;
51664;SDS011;37751;52.408;12.536;2022-09-02T05:31:33;3.95;;;2.55;;
51664;SDS011;37751;52.408;12.536;2022-09-02T05:34:01;2.92;;;2.22;;
51664;SDS011;37751;52.408;12.536;2022-09-02T05:36:27;5.60;;;2.83;;
51664;SDS011;37751;52.408;12.536;2022-09-02T05:38:56;5.68;;;2.55;;
51664;SDS011;37751;52.408;12.536;2022-09-02T05:41:25;3.42;;;2.30;;
51664;SDS011;37751;52.408;12.536;2022-09-02T05:43:56;3.40;;;2.00;;
51664;SDS011;37751;52.408;12.536;2022-09-02T05:46:29;6.03;;;2.00;;
51664;SDS011;37751;52.408;12.536;2022-09-02T05:48:56;3.28;;;1.70;;
51664;SDS011;37751;52.408;12.536;2022-09-02T05:51:44;4.57;;;2.50;;
51664;SDS011;37751;52.408;12.536;2022-09-02T05:54:18;7.32;;;1.88;;
51664;SDS011;37751;52.408;12.536;2022-09-02T05:56:57;3.17;;;1.73;;
51664;SDS011;37751;52.408;12.536;2022-09-02T05:59:30;4.53;;;1.70;;
51664;SDS011;37751;52.408;12.536;2022-09-02T06:02:02;5.93;;;1.77;;
51664;SDS011;37751;52.408;12.536;2022-09-02T06:04:29;10.32;;;1.85;;
51664;SDS011;37751;52.408;12.536;2022-09-02T06:06:57;6.80;;;1.70;;
51664;SDS011;37751;52.408;12.536;2022-09-02T06:09:24;3.38;;;2.33;;
51664;SDS011;37751;52.408;12.536;2022-09-02T06:11:50;2.30;;;1.80;;
51664;SDS011;37751;52.408;12.536;2022-09-02T06:14:18;2.97;;;2.08;;
51664;SDS011;37751;52.408;12.536;2022-09-02T06:16:50;7.15;;;2.05;;
51664;SDS011;37751;52.408;12.536;2022-09-02T06:19:20;3.83;;;2.33;;
51664;SDS011;37751;52.408;12.536;2022-09-02T06:21:50;8.57;;;3.70;;
51664;SDS011;37751;52.408;12.536;2022-09-02T06:24:19;5.43;;;1.95;;
51664;SDS011;37751;52.408;12.536;2022-09-02T06:26:46;12.75;;;4.68;;
51664;SDS011;37751;52.408;12.536;2022-09-02T06:29:13;6.68;;;2.47;;
51664;SDS011;37751;52.408;12.536;2022-09-02T06:31:41;13.60;;;3.67;;
51664;SDS011;37751;52.408;12.536;2022-09-02T06:34:11;11.40;;;4.22;;
51664;SDS011;37751;52.408;12.536;2022-09-02T06:36:39;6.93;;;3.22;;
51664;SDS011;37751;52.408;12.536;2022-09-02T06:39:12;9.43;;;3.42;;
51664;SDS011;37751;52.408;12.536;2022-09-02T06:41:43;5.93;;;2.50;;
51664;SDS011;37751;52.408;12.536;2022-09-02T06:44:12;5.03;;;1.77;;
51664;SDS011;37751;52.408;12.536;2022-09-02T06:46:42;6.18;;;1.90;;
51664;SDS011;37751;52.408;12.536;2022-09-02T06:49:14;5.78;;;1.58;;
51664;SDS011;37751;52.408;12.536;2022-09-02T06:51:43;4.57;;;1.50;;
51664;SDS011;37751;52.408;12.536;2022-09-02T06:54:13;4.88;;;2.83;;
51664;SDS011;37751;52.408;12.536;2022-09-02T06:56:45;4.85;;;1.98;;
51664;SDS011;37751;52.408;12.536;2022-09-02T06:59:16;3.92;;;1.98;;
51664;SDS011;37751;52.408;12.536;2022-09-02T07:01:45;4.82;;;2.33;;
51664;SDS011;37751;52.408;12.536;2022-09-02T07:04:13;6.45;;;2.28;;
51664;SDS011;37751;52.408;12.536;2022-09-02T07:06:59;5.22;;;2.08;;
51664;SDS011;37751;52.408;12.536;2022-09-02T07:09:26;6.03;;;2.33;;
51664;SDS011;37751;52.408;12.536;2022-09-02T07:12:00;3.05;;;1.90;;
51664;SDS011;37751;52.408;12.536;2022-09-02T07:14:31;5.53;;;2.08;;
51664;SDS011;37751;52.408;12.536;2022-09-02T07:17:03;3.72;;;1.67;;
51664;SDS011;37751;52.408;12.536;2022-09-02T07:21:59;5.60;;;2.13;;
51664;SDS011;37751;52.408;12.536;2022-09-02T07:24:27;5.30;;;2.28;;
51664;SDS011;37751;52.408;12.536;2022-09-02T07:26:54;5.00;;;2.15;;
51664;SDS011;37751;52.408;12.536;2022-09-02T07:29:21;8.25;;;1.88;;
51664;SDS011;37751;52.408;12.536;2022-09-02T07:31:48;4.63;;;1.70;;
51664;SDS011;37751;52.408;12.536;2022-09-02T07:34:16;2.67;;;1.42;;
51664;SDS011;37751;52.408;12.536;2022-09-02T07:36:43;4.45;;;1.67;;
51664;SDS011;37751;52.408;12.536;2022-09-02T07:39:11;2.03;;;1.30;;
51664;SDS011;37751;52.408;12.536;2022-09-02T07:41:40;6.05;;;1.50;;
51664;SDS011;37751;52.408;12.536;2022-09-02T07:44:10;9.55;;;1.73;;
51664;SDS011;37751;52.408;12.536;2022-09-02T07:46:37;3.30;;;1.63;;
51664;SDS011;37751;52.408;12.536;2022-09-02T07:49:05;2.40;;;1.67;;
51664;SDS011;37751;52.408;12.536;2022-09-02T07:51:37;2.25;;;1.63;;
51664;SDS011;37751;52.408;12.536;2022-09-02T07:54:07;5.00;;;1.58;;
51664;SDS011;37751;52.408;12.536;2022-09-02T07:56:36;2.80;;;1.63;;
51664;SDS011;37751;52.408;12.536;2022-09-02T07:59:03;5.80;;;2.20;;
51664;SDS011;37751;52.408;12.536;2022-09-02T08:01:30;2.22;;;1.58;;
51664;SDS011;37751;52.408;12.536;2022-09-02T08:03:57;3.65;;;1.65;;
51664;SDS011;37751;52.408;12.536;2022-09-02T08:06:29;2.33;;;1.70;;
51664;SDS011;37751;52.408;12.536;2022-09-02T08:09:00;3.53;;;2.08;;
51664;SDS011;37751;52.408;12.536;2022-09-02T08:11:32;6.55;;;3.05;;
51664;SDS011;37751;52.408;12.536;2022-09-02T08:14:02;5.07;;;2.28;;
51664;SDS011;37751;52.408;12.536;2022-09-02T08:16:29;5.60;;;1.60;;
51664;SDS011;37751;52.408;12.536;2022-09-02T08:18:56;9.85;;;3.05;;
51664;SDS011;37751;52.408;12.536;2022-09-02T08:21:23;7.10;;;1.88;;
51664;SDS011;37751;52.408;12.536;2022-09-02T08:23:53;3.63;;;1.75;;
51664;SDS011;37751;52.408;12.536;2022-09-02T08:26:20;2.95;;;1.55;;
51664;SDS011;37751;52.408;12.536;2022-09-02T08:28:48;4.43;;;1.70;;
51664;SDS011;37751;52.408;12.536;2022-09-02T08:31:15;4.32;;;1.60;;
51664;SDS011;37751;52.408;12.536;2022-09-02T08:33:42;7.18;;;1.42;;
51664;SDS011;37751;52.408;12.536;2022-09-02T08:36:09;3.22;;;1.58;;
51664;SDS011;37751;52.408;12.536;2022-09-02T08:38:40;3.00;;;1.52;;
51664;SDS011;37751;52.408;12.536;2022-09-02T08:41:27;4.57;;;1.50;;
51664;SDS011;37751;52.408;12.536;2022-09-02T08:44:09;3.08;;;1.15;;
51664;SDS011;37751;52.408;12.536;2022-09-02T08:46:39;2.38;;;1.50;;
51664;SDS011;37751;52.408;12.536;2022-09-02T08:49:07;4.03;;;1.50;;
51664;SDS011;37751;52.408;12.536;2022-09-02T08:54:26;5.57;;;1.60;;
51664;SDS011;37751;52.408;12.536;2022-09-02T08:57:23;3.25;;;1.58;;
51664;SDS011;37751;52.408;12.536;2022-09-02T08:59:52;10.18;;;1.48;;
51664;SDS011;37751;52.408;12.536;2022-09-02T09:02:32;2.08;;;1.27;;
51664;SDS011;37751;52.408;12.536;2022-09-02T09:05:22;4.78;;;1.40;;
51664;SDS011;37751;52.408;12.536;2022-09-02T09:11:32;2.08;;;1.50;;
51664;SDS011;37751;52.408;12.536;2022-09-02T09:14:28;2.25;;;1.23;;
51664;SDS011;37751;52.408;12.536;2022-09-02T09:17:44;4.07;;;1.52;;
51664;SDS011;37751;52.408;12.536;2022-09-02T09:20:28;4.20;;;1.40;;
51664;SDS011;37751;52.408;12.536;2022-09-02T09:25:47;1.63;;;1.45;;
51664;SDS011;37751;52.408;12.536;2022-09-02T09:28:17;2.83;;;1.30;;
51664;SDS011;37751;52.408;12.536;2022-09-02T09:30:44;4.32;;;1.10;;
51664;SDS011;37751;52.408;12.536;2022-09-02T09:33:13;5.70;;;1.40;;
51664;SDS011;37751;52.408;12.536;2022-09-02T09:36:01;6.05;;;1.20;;
51664;SDS011;37751;52.408;12.536;2022-09-02T09:38:33;6.97;;;1.63;;
51664;SDS011;37751;52.408;12.536;2022-09-02T09:41:12;1.73;;;1.15;;
51664;SDS011;37751;52.408;12.536;2022-09-02T09:43:41;4.50;;;1.20;;
51664;SDS011;37751;52.408;12.536;2022-09-02T09:48:54;4.32;;;1.40;;
51664;SDS011;37751;52.408;12.536;2022-09-02T09:51:21;5.22;;;1.13;;
51664;SDS011;37751;52.408;12.536;2022-09-02T09:53:47;3.85;;;1.02;;
51664;SDS011;37751;52.408;12.536;2022-09-02T09:58:49;4.47;;;1.00;;
51664;SDS011;37751;52.408;12.536;2022-09-02T10:04:07;5.07;;;1.00;;
51664;SDS011;37751;52.408;12.536;2022-09-02T10:07:04;6.95;;;1.00;;
51664;SDS011;37751;52.408;12.536;2022-09-02T10:09:35;2.45;;;0.80;;
51664;SDS011;37751;52.408;12.536;2022-09-02T10:12:06;6.03;;;0.82;;
51664;SDS011;37751;52.408;12.536;2022-09-02T10:14:42;4.90;;;1.05;;
51664;SDS011;37751;52.408;12.536;2022-09-02T10:21:21;3.08;;;0.88;;
51664;SDS011;37751;52.408;12.536;2022-09-02T10:26:48;4.82;;;1.60;;
51664;SDS011;37751;52.408;12.536;2022-09-02T10:29:25;2.60;;;0.70;;
51664;SDS011;37751;52.408;12.536;2022-09-02T10:40:49;2.33;;;0.73;;
51664;SDS011;37751;52.408;12.536;2022-09-02T10:55:53;6.00;;;0.70;;
51664;SDS011;37751;52.408;12.536;2022-09-02T10:58:34;1.55;;;0.80;;
51664;SDS011;37751;52.408;12.536;2022-09-02T11:01:17;2.28;;;0.88;;
51664;SDS011;37751;52.408;12.536;2022-09-02T11:06:50;4.00;;;0.82;;
51664;SDS011;37751;52.408;12.536;2022-09-02T11:09:39;4.18;;;0.65;;
51664;SDS011;37751;52.408;12.536;2022-09-02T11:12:17;9.45;;;1.08;;
51664;SDS011;37751;52.408;12.536;2022-09-02T11:15:17;3.17;;;0.70;;
51664;SDS011;37751;52.408;12.536;2022-09-02T11:20:46;1.10;;;0.73;;
51664;SDS011;37751;52.408;12.536;2022-09-02T11:26:17;2.10;;;0.85;;
51664;SDS011;37751;52.408;12.536;2022-09-02T11:29:37;1.60;;;0.75;;
51664;SDS011;37751;52.408;12.536;2022-09-02T11:35:54;3.55;;;1.00;;
51664;SDS011;37751;52.408;12.536;2022-09-02T11:41:42;2.70;;;0.90;;
51664;SDS011;37751;52.408;12.536;2022-09-02T11:54:20;4.00;;;0.75;;
51664;SDS011;37751;52.408;12.536;2022-09-02T11:56:56;6.45;;;1.40;;
51664;SDS011;37751;52.408;12.536;2022-09-02T12:08:10;1.75;;;0.65;;
51664;SDS011;37751;52.408;12.536;2022-09-02T12:11:04;3.13;;;0.73;;
51664;SDS011;37751;52.408;12.536;2022-09-02T12:13:42;3.00;;;0.98;;
51664;SDS011;37751;52.408;12.536;2022-09-02T12:21:33;3.75;;;1.15;;
51664;SDS011;37751;52.408;12.536;2022-09-02T12:24:01;1.60;;;0.82;;
51664;SDS011;37751;52.408;12.536;2022-09-02T12:31:47;2.53;;;0.80;;
51664;SDS011;37751;52.408;12.536;2022-09-02T12:36:47;7.53;;;0.60;;
51664;SDS011;37751;52.408;12.536;2022-09-02T12:47:56;1.20;;;0.60;;
51664;SDS011;37751;52.408;12.536;2022-09-02T12:56:35;8.57;;;1.10;;
51664;SDS011;37751;52.408;12.536;2022-09-02T12:58:50;4.80;;;0.73;;
51664;SDS011;37751;52.408;12.536;2022-09-02T13:01:42;1.52;;;0.65;;
51664;SDS011;37751;52.408;12.536;2022-09-02T13:04:24;3.00;;;0.60;;
51664;SDS011;37751;52.408;12.536;2022-09-02T13:33:45;4.90;;;0.77;;
51664;SDS011;37751;52.408;12.536;2022-09-02T13:36:18;3.38;;;1.23;;
51664;SDS011;37751;52.408;12.536;2022-09-02T13:39:08;6.22;;;0.75;;
51664;SDS011;37751;52.408;12.536;2022-09-02T13:41:53;2.65;;;1.00;;
51664;SDS011;37751;52.408;12.536;2022-09-02T13:44:23;2.60;;;0.85;;
51664;SDS011;37751;52.408;12.536;2022-09-02T13:47:03;3.80;;;0.70;;
51664;SDS011;37751;52.408;12.536;2022-09-02T13:49:44;1.83;;;0.80;;
51664;SDS011;37751;52.408;12.536;2022-09-02T13:52:14;2.45;;;1.20;;
51664;SDS011;37751;52.408;12.536;2022-09-02T13:55:09;2.63;;;0.73;;
51664;SDS011;37751;52.408;12.536;2022-09-02T13:57:42;2.33;;;0.88;;
51664;SDS011;37751;52.408;12.536;2022-09-02T14:00:14;1.27;;;1.00;;
51664;SDS011;37751;52.408;12.536;2022-09-02T14:02:55;0.93;;;0.63;;
51664;SDS011;37751;52.408;12.536;2022-09-02T14:05:29;2.80;;;0.90;;
51664;SDS011;37751;52.408;12.536;2022-09-02T14:07:59;4.82;;;1.25;;
51664;SDS011;37751;52.408;12.536;2022-09-02T14:10:29;2.97;;;1.20;;
51664;SDS011;37751;52.408;12.536;2022-09-02T14:13:00;1.10;;;0.55;;
51664;SDS011;37751;52.408;12.536;2022-09-02T14:15:31;13.13;;;1.83;;
51664;SDS011;37751;52.408;12.536;2022-09-02T14:18:06;1.85;;;0.80;;
51664;SDS011;37751;52.408;12.536;2022-09-02T14:20:56;4.22;;;1.00;;
51664;SDS011;37751;52.408;12.536;2022-09-02T14:23:47;0.47;;;0.47;;
51664;SDS011;37751;52.408;12.536;2022-09-02T14:26:23;3.05;;;1.10;;
51664;SDS011;37751;52.408;12.536;2022-09-02T14:29:00;1.00;;;0.88;;
51664;SDS011;37751;52.408;12.536;2022-09-02T14:31:31;1.00;;;0.90;;
51664;SDS011;37751;52.408;12.536;2022-09-02T14:34:02;3.17;;;1.20;;
51664;SDS011;37751;52.408;12.536;2022-09-02T14:36:35;1.38;;;0.70;;
51664;SDS011;37751;52.408;12.536;2022-09-02T14:39:10;8.38;;;1.05;;
51664;SDS011;37751;52.408;12.536;2022-09-02T14:41:46;6.80;;;0.88;;
51664;SDS011;37751;52.408;12.536;2022-09-02T14:44:28;2.30;;;0.93;;
51664;SDS011;37751;52.408;12.536;2022-09-02T14:47:00;7.28;;;1.02;;
51664;SDS011;37751;52.408;12.536;2022-09-02T14:52:09;5.00;;;0.80;;
51664;SDS011;37751;52.408;12.536;2022-09-02T14:54:53;2.00;;;0.70;;
51664;SDS011;37751;52.408;12.536;2022-09-02T14:57:26;5.57;;;0.90;;
51664;SDS011;37751;52.408;12.536;2022-09-02T14:59:59;3.28;;;0.98;;
51664;SDS011;37751;52.408;12.536;2022-09-02T15:02:38;3.80;;;0.80;;
51664;SDS011;37751;52.408;12.536;2022-09-02T15:05:09;7.70;;;0.90;;
51664;SDS011;37751;52.408;12.536;2022-09-02T15:07:39;5.28;;;1.35;;
51664;SDS011;37751;52.408;12.536;2022-09-02T15:10:07;2.80;;;1.60;;
51664;SDS011;37751;52.408;12.536;2022-09-02T15:12:50;3.00;;;1.15;;
51664;SDS011;37751;52.408;12.536;2022-09-02T15:15:18;8.27;;;1.48;;
51664;SDS011;37751;52.408;12.536;2022-09-02T15:17:45;5.65;;;1.05;;
51664;SDS011;37751;52.408;12.536;2022-09-02T15:20:12;1.88;;;1.10;;
51664;SDS011;37751;52.408;12.536;2022-09-02T15:22:39;2.00;;;0.95;;
51664;SDS011;37751;52.408;12.536;2022-09-02T15:25:06;2.85;;;0.95;;
51664;SDS011;37751;52.408;12.536;2022-09-02T15:27:34;1.58;;;0.85;;
51664;SDS011;37751;52.408;12.536;2022-09-02T15:30:02;3.17;;;1.10;;
51664;SDS011;37751;52.408;12.536;2022-09-02T15:32:31;3.58;;;1.00;;
51664;SDS011;37751;52.408;12.536;2022-09-02T15:34:58;1.83;;;1.05;;
51664;SDS011;37751;52.408;12.536;2022-09-02T15:37:25;4.53;;;0.85;;
51664;SDS011;37751;52.408;12.536;2022-09-02T15:39:52;2.20;;;1.00;;
51664;SDS011;37751;52.408;12.536;2022-09-02T15:42:19;4.35;;;0.90;;
51664;SDS011;37751;52.408;12.536;2022-09-02T15:44:46;8.65;;;0.70;;
51664;SDS011;37751;52.408;12.536;2022-09-02T15:47:13;1.88;;;1.15;;
51664;SDS011;37751;52.408;12.536;2022-09-02T15:49:39;2.50;;;1.65;;
51664;SDS011;37751;52.408;12.536;2022-09-02T15:52:06;1.58;;;1.30;;
51664;SDS011;37751;52.408;12.536;2022-09-02T15:54:33;1.50;;;1.10;;
51664;SDS011;37751;52.408;12.536;2022-09-02T15:56:59;3.03;;;1.17;;
51664;SDS011;37751;52.408;12.536;2022-09-02T15:59:26;2.95;;;1.20;;
51664;SDS011;37751;52.408;12.536;2022-09-02T16:01:54;3.97;;;1.02;;
51664;SDS011;37751;52.408;12.536;2022-09-02T16:04:23;2.90;;;1.27;;
51664;SDS011;37751;52.408;12.536;2022-09-02T16:06:52;1.48;;;1.10;;
51664;SDS011;37751;52.408;12.536;2022-09-02T16:09:19;3.42;;;1.42;;
51664;SDS011;37751;52.408;12.536;2022-09-02T16:11:50;1.85;;;1.40;;
51664;SDS011;37751;52.408;12.536;2022-09-02T16:14:19;8.20;;;1.10;;
51664;SDS011;37751;52.408;12.536;2022-09-02T16:16:48;3.25;;;1.00;;
51664;SDS011;37751;52.408;12.536;2022-09-02T16:19:20;7.15;;;1.83;;
51664;SDS011;37751;52.408;12.536;2022-09-02T16:21:49;1.48;;;1.33;;
51664;SDS011;37751;52.408;12.536;2022-09-02T16:24:16;2.80;;;1.58;;
51664;SDS011;37751;52.408;12.536;2022-09-02T16:26:47;1.77;;;1.00;;
51664;SDS011;37751;52.408;12.536;2022-09-02T16:29:15;1.88;;;1.05;;
51664;SDS011;37751;52.408;12.536;2022-09-02T16:31:44;5.63;;;1.92;;
51664;SDS011;37751;52.408;12.536;2022-09-02T16:34:33;3.00;;;1.70;;
51664;SDS011;37751;52.408;12.536;2022-09-02T16:37:00;1.95;;;1.70;;
51664;SDS011;37751;52.408;12.536;2022-09-02T16:39:27;2.53;;;1.30;;
51664;SDS011;37751;52.408;12.536;2022-09-02T16:41:53;1.83;;;1.38;;
51664;SDS011;37751;52.408;12.536;2022-09-02T16:44:22;4.70;;;2.00;;
51664;SDS011;37751;52.408;12.536;2022-09-02T16:46:51;2.92;;;0.85;;
51664;SDS011;37751;52.408;12.536;2022-09-02T16:49:19;4.95;;;1.60;;
51664;SDS011;37751;52.408;12.536;2022-09-02T16:51:47;1.40;;;1.17;;
51664;SDS011;37751;52.408;12.536;2022-09-02T16:54:24;3.70;;;1.40;;
51664;SDS011;37751;52.408;12.536;2022-09-02T16:56:57;1.25;;;1.15;;
51664;SDS011;37751;52.408;12.536;2022-09-02T16:59:25;1.35;;;1.10;;
51664;SDS011;37751;52.408;12.536;2022-09-02T17:01:52;2.17;;;0.90;;
51664;SDS011;37751;52.408;12.536;2022-09-02T17:04:19;6.65;;;1.17;;
51664;SDS011;37751;52.408;12.536;2022-09-02T17:06:46;2.17;;;1.20;;
51664;SDS011;37751;52.408;12.536;2022-09-02T17:09:13;1.25;;;0.80;;
51664;SDS011;37751;52.408;12.536;2022-09-02T17:11:41;1.15;;;1.00;;
51664;SDS011;37751;52.408;12.536;2022-09-02T17:14:11;3.13;;;1.60;;
51664;SDS011;37751;52.408;12.536;2022-09-02T17:16:42;1.58;;;0.98;;
51664;SDS011;37751;52.408;12.536;2022-09-02T17:19:13;4.15;;;1.25;;
51664;SDS011;37751;52.408;12.536;2022-09-02T17:21:47;3.92;;;1.00;;
51664;SDS011;37751;52.408;12.536;2022-09-02T17:24:17;3.65;;;1.23;;
51664;SDS011;37751;52.408;12.536;2022-09-02T17:26:50;1.65;;;0.98;;
51664;SDS011;37751;52.408;12.536;2022-09-02T17:29:22;3.10;;;1.23;;